Time;durP1;ratioP1;P1;durP2;ratioP2;P2;SDS_P1;SDS_P2;PMS_P1;PMS_P2;Temp;Humidity;BMP_temperature;BMP_pressure;BME280_temperature;BME280_humidity;BME280_pressure;Samples;Min_cycle;Max_cycle;Signal;HPM_P1;HPM_P2
2021/09/04 00:01:42;;;;;;;;;;;15.70;99.90;;;;;;5072758;28;20047;-91
2021/09/04 00:04:07;;;;;;;;;;;15.70;99.90;;;;;;5068867;28;19966;-91
2021/09/04 00:06:33;;;;;;;;;;;15.70;99.90;;;;;;5057872;28;20014;-91
2021/09/04 00:09:00;;;;;;;;;;;15.70;99.90;;;;;;5078620;28;19924;-91
2021/09/04 00:11:25;;;;;;;;;;;15.70;99.90;;;;;;5070716;28;19997;-91
2021/09/04 00:13:51;;;;;;;;;;;15.60;99.90;;;;;;5063980;27;19923;-91
2021/09/04 00:16:16;;;;;;;;;;;15.60;99.90;;;;;;5097521;27;20373;-91
2021/09/04 00:18:42;;;;;;;;;;;15.60;99.90;;;;;;5093754;27;19934;-91
2021/09/04 00:21:07;;;;;;;;;;;15.60;99.90;;;;;;5094033;27;20013;-91
2021/09/04 00:23:33;;;;;;;;;;;15.60;99.90;;;;;;5057596;27;19931;-91
2021/09/04 00:25:59;;;;;;;;;;;15.60;99.90;;;;;;5089669;28;19920;-90
2021/09/04 00:28:24;;;;;;;;;;;15.60;99.90;;;;;;5084164;27;20027;-91
2021/09/04 00:30:50;;;;;;;;;;;15.60;99.90;;;;;;5087943;27;19946;-91
2021/09/04 00:33:15;;;;;;;;;;;15.60;99.90;;;;;;5114325;27;20385;-91
2021/09/04 00:35:41;;;;;;;;;;;15.60;99.90;;;;;;5095704;28;20292;-91
2021/09/04 00:38:06;;;;;;;;;;;15.60;99.90;;;;;;5040904;28;19928;-91
2021/09/04 00:40:32;;;;;;;;;;;15.60;99.90;;;;;;5071718;28;19920;-91
2021/09/04 00:42:58;;;;;;;;;;;15.60;99.90;;;;;;5059918;28;19920;-92
2021/09/04 00:45:23;;;;;;;;;;;15.60;99.90;;;;;;5075542;28;19924;-91
2021/09/04 00:48:09;;;;;;;;;;;15.60;99.90;;;;;;5059827;28;19923;-91
2021/09/04 00:50:35;;;;;;;;;;;15.60;99.90;;;;;;5075705;28;19970;-91
2021/09/04 00:53:02;;;;;;;;;;;15.60;99.90;;;;;;5076761;28;19931;-91
2021/09/04 00:55:27;;;;;;;;;;;15.60;99.90;;;;;;5073291;28;19930;-91
2021/09/04 00:57:53;;;;;;;;;;;15.60;99.90;;;;;;5073132;28;20023;-92
2021/09/04 01:00:19;;;;;;;;;;;15.60;99.90;;;;;;5072568;28;19923;-91
2021/09/04 01:02:45;;;;;;;;;;;15.60;99.90;;;;;;5059799;28;19967;-91
2021/09/04 01:05:11;;;;;;;;;;;15.50;99.90;;;;;;5069637;27;19928;-91
2021/09/04 01:07:37;;;;;;;;;;;15.50;99.90;;;;;;5096178;27;20009;-90
2021/09/04 01:10:03;;;;;;;;;;;15.50;99.90;;;;;;5082435;28;19920;-92
2021/09/04 01:12:28;;;;;;;;;;;15.50;99.90;;;;;;5070866;28;19923;-90
2021/09/04 01:14:54;;;;;;;;;;;15.50;99.90;;;;;;5081168;27;19931;-91
2021/09/04 01:17:19;;;;;;;;;;;15.50;99.90;;;;;;5079345;28;19930;-91
2021/09/04 01:19:45;;;;;;;;;;;15.50;99.90;;;;;;5068438;28;19928;-91
2021/09/04 01:22:11;;;;;;;;;;;15.50;99.90;;;;;;5072728;28;19932;-90
2021/09/04 01:24:36;;;;;;;;;;;15.50;99.90;;;;;;5055608;28;20012;-91
2021/09/04 01:27:02;;;;;;;;;;;15.50;99.90;;;;;;5056007;28;19920;-91
2021/09/04 01:29:28;;;;;;;;;;;15.50;99.90;;;;;;5058823;28;19920;-92
2021/09/04 01:31:53;;;;;;;;;;;15.50;99.90;;;;;;5079150;28;19942;-91
2021/09/04 01:34:19;;;;;;;;;;;15.50;99.90;;;;;;5070062;28;20178;-92
2021/09/04 01:36:44;;;;;;;;;;;15.50;99.90;;;;;;5092619;27;20011;-91
2021/09/04 01:39:10;;;;;;;;;;;15.50;99.90;;;;;;5065249;28;19926;-91
2021/09/04 01:41:42;;;;;;;;;;;15.50;99.90;;;;;;5075820;28;19923;-91
2021/09/04 01:44:08;;;;;;;;;;;15.50;99.90;;;;;;5075372;28;20014;-91
2021/09/04 01:46:36;;;;;;;;;;;15.50;99.90;;;;;;5071365;28;20014;-91
2021/09/04 01:49:02;;;;;;;;;;;15.50;99.90;;;;;;5092469;28;19915;-91
2021/09/04 01:51:28;;;;;;;;;;;15.50;99.90;;;;;;5069198;28;19977;-92
2021/09/04 01:53:53;;;;;;;;;;;15.50;99.90;;;;;;5081341;27;19923;-91
2021/09/04 01:56:19;;;;;;;;;;;15.40;99.90;;;;;;5074554;28;19942;-90
2021/09/04 01:58:46;;;;;;;;;;;15.40;99.90;;;;;;5072880;28;19974;-92
2021/09/04 02:01:11;;;;;;;;;;;15.40;99.90;;;;;;5072558;28;20034;-91
2021/09/04 02:03:37;;;;;;;;;;;15.40;99.90;;;;;;5072088;28;20481;-91
2021/09/04 02:06:03;;;;;;;;;;;15.40;99.90;;;;;;5089200;28;20401;-91
2021/09/04 02:08:28;;;;;;;;;;;15.40;99.90;;;;;;5084848;28;19920;-91
2021/09/04 02:10:54;;;;;;;;;;;15.40;99.90;;;;;;5069150;28;19935;-90
2021/09/04 02:13:20;;;;;;;;;;;15.40;99.90;;;;;;5077039;28;19974;-91
2021/09/04 02:15:45;;;;;;;;;;;15.40;99.90;;;;;;5079393;28;19930;-90
2021/09/04 02:18:11;;;;;;;;;;;15.40;99.90;;;;;;5091997;28;19923;-91
2021/09/04 02:20:37;;;;;;;;;;;15.40;99.90;;;;;;5056727;28;20378;-91
2021/09/04 02:23:02;;;;;;;;;;;15.40;99.90;;;;;;5059774;28;19924;-91
2021/09/04 02:25:28;;;;;;;;;;;15.40;99.90;;;;;;5053392;28;19923;-91
2021/09/04 02:27:53;;;;;;;;;;;15.40;99.90;;;;;;5054159;28;20382;-92
2021/09/04 02:30:19;;;;;;;;;;;15.40;99.90;;;;;;5058057;28;19927;-91
2021/09/04 02:32:45;;;;;;;;;;;15.40;99.90;;;;;;5058571;28;19947;-91
2021/09/04 02:35:10;;;;;;;;;;;15.40;99.90;;;;;;5074477;28;20317;-91
2021/09/04 02:37:36;;;;;;;;;;;15.40;99.90;;;;;;5073682;28;19927;-91
2021/09/04 02:40:02;;;;;;;;;;;15.30;99.90;;;;;;5071933;28;19927;-91
2021/09/04 02:42:28;;;;;;;;;;;15.30;99.90;;;;;;5074891;28;19931;-91
2021/09/04 02:44:54;;;;;;;;;;;15.30;99.90;;;;;;5074696;28;20294;-91
2021/09/04 02:47:19;;;;;;;;;;;15.30;99.90;;;;;;5091154;28;19955;-92
2021/09/04 02:49:45;;;;;;;;;;;15.30;99.90;;;;;;5058325;28;19927;-92
2021/09/04 02:52:11;;;;;;;;;;;15.30;99.90;;;;;;5074378;28;19924;-90
2021/09/04 02:54:36;;;;;;;;;;;15.30;99.90;;;;;;5091895;28;19934;-91
2021/09/04 02:57:02;;;;;;;;;;;15.30;99.90;;;;;;5047164;28;19920;-91
2021/09/04 02:59:28;;;;;;;;;;;15.30;99.90;;;;;;5059843;28;20022;-91
2021/09/04 03:01:53;;;;;;;;;;;15.30;99.90;;;;;;5073718;27;20053;-90
2021/09/04 03:04:19;;;;;;;;;;;15.40;99.90;;;;;;5099202;27;19926;-91
2021/09/04 03:06:44;;;;;;;;;;;15.30;99.90;;;;;;5084776;28;20015;-91
2021/09/04 03:09:10;;;;;;;;;;;15.30;99.90;;;;;;5062180;28;19975;-91
2021/09/04 03:11:36;;;;;;;;;;;15.30;99.90;;;;;;5088621;27;20361;-91
2021/09/04 03:14:01;;;;;;;;;;;15.30;99.90;;;;;;5070565;28;19927;-91
2021/09/04 03:16:27;;;;;;;;;;;15.30;99.90;;;;;;5103211;27;19954;-91
2021/09/04 03:18:53;;;;;;;;;;;15.40;99.90;;;;;;5083313;28;20059;-92
2021/09/04 03:21:19;;;;;;;;;;;15.40;99.90;;;;;;5048614;28;20200;-91
2021/09/04 03:23:44;;;;;;;;;;;15.40;99.90;;;;;;5062449;28;20040;-91
2021/09/04 03:26:10;;;;;;;;;;;15.40;99.90;;;;;;5077646;28;19977;-90
2021/09/04 03:28:36;;;;;;;;;;;15.40;99.90;;;;;;5061614;28;19915;-92
2021/09/04 03:31:01;;;;;;;;;;;15.40;99.90;;;;;;5055997;27;19920;-91
2021/09/04 03:33:27;;;;;;;;;;;15.30;99.90;;;;;;5091488;28;19916;-91
2021/09/04 03:35:53;;;;;;;;;;;15.40;99.90;;;;;;5061055;28;19930;-92
2021/09/04 03:38:18;;;;;;;;;;;15.40;99.90;;;;;;5098653;27;20010;-92
2021/09/04 03:40:44;;;;;;;;;;;15.40;99.90;;;;;;5087080;28;20468;-91
2021/09/04 03:43:09;;;;;;;;;;;15.40;99.90;;;;;;5051615;28;20303;-91
2021/09/04 03:45:35;;;;;;;;;;;15.40;99.90;;;;;;5075283;28;19927;-91
2021/09/04 03:48:01;;;;;;;;;;;15.40;99.90;;;;;;5057653;28;19924;-91
2021/09/04 03:50:27;;;;;;;;;;;15.40;99.90;;;;;;5073999;28;19928;-91
2021/09/04 03:52:53;;;;;;;;;;;15.40;99.90;;;;;;5067011;28;20007;-91
2021/09/04 03:55:18;;;;;;;;;;;15.40;99.90;;;;;;5062921;28;19928;-91
2021/09/04 03:57:44;;;;;;;;;;;15.30;99.90;;;;;;5090024;27;20354;-91
2021/09/04 04:00:17;;;;;;;;;;;15.30;99.90;;;;;;5082220;28;19979;-91
2021/09/04 04:02:43;;;;;;;;;;;15.30;99.90;;;;;;5063984;27;19932;-91
2021/09/04 04:05:08;;;;;;;;;;;15.30;99.90;;;;;;5072066;28;19977;-91
2021/09/04 04:07:34;;;;;;;;;;;15.30;99.90;;;;;;5057558;28;19931;-90
2021/09/04 04:10:00;;;;;;;;;;;15.30;99.90;;;;;;5088593;28;19923;-91
2021/09/04 04:12:25;;;;;;;;;;;15.30;99.90;;;;;;5065348;28;19923;-92
2021/09/04 04:14:51;;;;;;;;;;;15.30;99.90;;;;;;5060540;28;19928;-92
2021/09/04 04:17:16;;;;;;;;;;;15.30;99.90;;;;;;5085360;28;19924;-91
2021/09/04 04:19:42;;;;;;;;;;;15.30;99.90;;;;;;5064597;28;19919;-92
2021/09/04 04:22:07;;;;;;;;;;;15.30;99.90;;;;;;5073389;27;19927;-91
2021/09/04 04:24:33;;;;;;;;;;;15.30;99.90;;;;;;5089105;28;20272;-93
2021/09/04 04:27:01;;;;;;;;;;;15.30;99.90;;;;;;5076208;28;20359;-92
2021/09/04 04:29:27;;;;;;;;;;;15.30;99.90;;;;;;5071206;28;20389;-91
2021/09/04 04:31:53;;;;;;;;;;;15.30;99.90;;;;;;5075965;28;20371;-92
2021/09/04 04:34:18;;;;;;;;;;;15.30;99.90;;;;;;5074048;28;19927;-93
2021/09/04 04:36:44;;;;;;;;;;;15.30;99.90;;;;;;5049348;28;19985;-92
2021/09/04 04:39:09;;;;;;;;;;;15.30;99.90;;;;;;5058482;28;19983;-92
2021/09/04 04:41:35;;;;;;;;;;;15.30;99.90;;;;;;5054439;28;20047;-91
2021/09/04 04:44:01;;;;;;;;;;;15.30;99.90;;;;;;5064722;28;20033;-92
2021/09/04 04:46:26;;;;;;;;;;;15.20;99.90;;;;;;5067698;28;19920;-92
2021/09/04 04:48:52;;;;;;;;;;;15.20;99.90;;;;;;5040644;28;19927;-92
2021/09/04 04:51:17;;;;;;;;;;;15.20;99.90;;;;;;5049778;28;19970;-92
2021/09/04 04:53:43;;;;;;;;;;;15.20;99.90;;;;;;5060066;28;20344;-92
2021/09/04 04:56:08;;;;;;;;;;;15.20;99.90;;;;;;5059051;28;19924;-91
2021/09/04 04:58:34;;;;;;;;;;;15.30;99.90;;;;;;5073182;28;19931;-92
2021/09/04 05:00:59;;;;;;;;;;;15.20;99.90;;;;;;5056356;28;19928;-92
2021/09/04 05:03:25;;;;;;;;;;;15.20;99.90;;;;;;5089114;28;20018;-92
2021/09/04 05:05:51;;;;;;;;;;;15.30;99.90;;;;;;5039927;28;19927;-91
2021/09/04 05:08:16;;;;;;;;;;;15.30;99.90;;;;;;5072195;28;19931;-91
2021/09/04 05:10:42;;;;;;;;;;;15.30;99.90;;;;;;5059928;28;20419;-92
2021/09/04 05:13:07;;;;;;;;;;;15.30;99.90;;;;;;5055897;28;20822;-91
2021/09/04 05:15:33;;;;;;;;;;;15.30;99.90;;;;;;5055701;28;19924;-93
2021/09/04 05:17:58;;;;;;;;;;;15.30;99.90;;;;;;5059273;28;19924;-93
2021/09/04 05:20:24;;;;;;;;;;;15.30;99.90;;;;;;5093065;28;19924;-92
2021/09/04 05:22:50;;;;;;;;;;;15.30;99.90;;;;;;5071795;28;19942;-92
2021/09/04 05:25:16;;;;;;;;;;;15.30;99.90;;;;;;5040705;28;19924;-92
2021/09/04 05:27:41;;;;;;;;;;;15.30;99.90;;;;;;5093024;28;19923;-92
2021/09/04 05:30:07;;;;;;;;;;;15.30;99.90;;;;;;5076596;28;19927;-92
2021/09/04 05:32:33;;;;;;;;;;;15.30;99.90;;;;;;5076225;28;19924;-92
2021/09/04 05:35:01;;;;;;;;;;;15.30;99.90;;;;;;5059699;28;19923;-92
2021/09/04 05:37:27;;;;;;;;;;;15.40;99.90;;;;;;5076479;28;20397;-92
2021/09/04 05:39:53;;;;;;;;;;;15.40;99.90;;;;;;5071924;28;19966;-92
2021/09/04 05:42:18;;;;;;;;;;;15.40;99.90;;;;;;5056122;28;19973;-92
2021/09/04 05:44:44;;;;;;;;;;;15.40;99.90;;;;;;5043691;28;20066;-92
2021/09/04 05:47:10;;;;;;;;;;;15.40;99.90;;;;;;5055663;28;19931;-92
2021/09/04 05:49:35;;;;;;;;;;;15.40;99.90;;;;;;5045361;28;19931;-92
2021/09/04 05:52:01;;;;;;;;;;;15.40;99.90;;;;;;5059244;28;19930;-92
2021/09/04 05:54:27;;;;;;;;;;;15.40;99.90;;;;;;5092334;28;20065;-91
2021/09/04 05:56:53;;;;;;;;;;;15.40;99.90;;;;;;5092718;28;19923;-92
2021/09/04 05:59:19;;;;;;;;;;;15.40;99.90;;;;;;5092366;28;19927;-92
2021/09/04 06:01:44;;;;;;;;;;;15.40;99.90;;;;;;5085714;28;19916;-92
2021/09/04 06:04:10;;;;;;;;;;;15.40;99.90;;;;;;5068131;28;19977;-92
2021/09/04 06:06:36;;;;;;;;;;;15.50;99.90;;;;;;5054909;28;19961;-93
2021/09/04 06:09:05;;;;;;;;;;;15.40;99.90;;;;;;5065734;28;19924;-92
2021/09/04 06:11:31;;;;;;;;;;;15.50;99.90;;;;;;5061468;28;19927;-92
2021/09/04 06:13:57;;;;;;;;;;;15.50;99.90;;;;;;5064182;28;19920;-92
2021/09/04 06:16:22;;;;;;;;;;;15.50;99.90;;;;;;5073662;28;19963;-92
2021/09/04 06:18:48;;;;;;;;;;;15.50;99.90;;;;;;5069624;28;19966;-92
2021/09/04 06:21:14;;;;;;;;;;;15.50;99.90;;;;;;5073849;28;19954;-93
2021/09/04 06:23:39;;;;;;;;;;;15.50;99.90;;;;;;5069031;28;19959;-92
2021/09/04 06:26:05;;;;;;;;;;;15.50;99.90;;;;;;5068888;28;19934;-92
2021/09/04 06:28:30;;;;;;;;;;;15.60;99.90;;;;;;5050341;28;19920;-92
2021/09/04 06:30:56;;;;;;;;;;;15.50;99.90;;;;;;5068772;28;20379;-92
2021/09/04 06:33:21;;;;;;;;;;;15.60;99.90;;;;;;5065837;28;20004;-92
2021/09/04 06:35:47;;;;;;;;;;;15.60;99.90;;;;;;5078670;28;20459;-92
2021/09/04 06:38:13;;;;;;;;;;;15.60;99.90;;;;;;5079297;28;19920;-92
2021/09/04 06:40:39;;;;;;;;;;;15.60;99.90;;;;;;5078594;28;19920;-92
2021/09/04 06:43:06;;;;;;;;;;;15.70;99.90;;;;;;5073598;28;19997;-91
2021/09/04 06:45:31;;;;;;;;;;;15.70;99.90;;;;;;5070265;28;20321;-91
2021/09/04 06:47:57;;;;;;;;;;;15.70;99.90;;;;;;5059543;28;19941;-92
2021/09/04 06:50:22;;;;;;;;;;;15.80;99.90;;;;;;5072347;28;19982;-92
2021/09/04 06:52:48;;;;;;;;;;;15.80;99.90;;;;;;5096380;28;19992;-93
2021/09/04 06:55:14;;;;;;;;;;;15.80;99.90;;;;;;5078682;28;19928;-93
2021/09/04 06:57:39;;;;;;;;;;;15.80;99.90;;;;;;5079318;28;20118;-92
2021/09/04 07:00:05;;;;;;;;;;;15.80;99.90;;;;;;5095925;28;20130;-93
2021/09/04 07:02:31;;;;;;;;;;;15.80;99.90;;;;;;5095103;28;19923;-92
2021/09/04 07:04:56;;;;;;;;;;;15.90;99.90;;;;;;5057468;28;19947;-94
2021/09/04 07:07:22;;;;;;;;;;;15.90;99.90;;;;;;5074244;27;20014;-90
2021/09/04 07:09:47;;;;;;;;;;;15.90;99.90;;;;;;5060457;27;20792;-90
2021/09/04 07:12:13;;;;;;;;;;;15.90;99.90;;;;;;5063986;27;19924;-92
2021/09/04 07:14:38;;;;;;;;;;;16.00;99.90;;;;;;5078783;28;19970;-91
2021/09/04 07:17:04;;;;;;;;;;;16.00;99.90;;;;;;5064596;27;19923;-91
2021/09/04 07:19:30;;;;;;;;;;;16.00;99.90;;;;;;5060259;28;19928;-91
2021/09/04 07:21:55;;;;;;;;;;;16.00;99.90;;;;;;5056831;27;19939;-91
2021/09/04 07:24:21;;;;;;;;;;;16.00;99.90;;;;;;5081838;27;19926;-91
2021/09/04 07:26:46;;;;;;;;;;;16.00;99.90;;;;;;5064494;27;19966;-92
2021/09/04 07:29:12;;;;;;;;;;;16.10;99.90;;;;;;5062461;28;20375;-92
2021/09/04 07:31:37;;;;;;;;;;;16.10;99.90;;;;;;5057968;28;19930;-91
2021/09/04 07:34:03;;;;;;;;;;;16.10;99.90;;;;;;5058664;28;19981;-92
2021/09/04 07:36:29;;;;;;;;;;;16.10;99.90;;;;;;5074415;28;19923;-90
2021/09/04 07:38:54;;;;;;;;;;;16.10;99.90;;;;;;5078029;28;20386;-94
2021/09/04 07:41:20;;;;;;;;;;;16.10;99.90;;;;;;5050913;28;20018;-94
2021/09/04 07:43:45;;;;;;;;;;;16.10;99.90;;;;;;5062595;27;19934;-91
2021/09/04 07:46:11;;;;;;;;;;;16.10;99.90;;;;;;5067901;28;19924;-92
2021/09/04 07:48:37;;;;;;;;;;;16.10;99.90;;;;;;5058349;28;20410;-92
2021/09/04 07:51:02;;;;;;;;;;;16.10;99.90;;;;;;5051926;28;19920;-95
2021/09/04 07:53:28;;;;;;;;;;;16.10;99.90;;;;;;5071796;28;20011;-92
2021/09/04 07:55:53;;;;;;;;;;;16.20;99.90;;;;;;5075863;28;19930;-96
2021/09/04 07:58:19;;;;;;;;;;;16.20;99.90;;;;;;5073173;28;19927;-96
2021/09/04 08:00:45;;;;;;;;;;;16.20;99.90;;;;;;5078307;28;20062;-94
2021/09/04 08:03:10;;;;;;;;;;;16.30;99.90;;;;;;5061763;28;20361;-96
2021/09/04 08:05:36;;;;;;;;;;;16.30;99.90;;;;;;5093591;28;19935;-96
2021/09/04 08:08:02;;;;;;;;;;;16.30;99.90;;;;;;5106403;22;20327;-85
2021/09/04 08:10:27;;;;;;;;;;;16.30;99.90;;;;;;5042982;28;19928;-85
2021/09/04 08:12:53;;;;;;;;;;;16.30;99.90;;;;;;5053303;28;20372;-84
2021/09/04 08:15:19;;;;;;;;;;;16.30;99.90;;;;;;5037368;28;19927;-85
2021/09/04 08:17:44;;;;;;;;;;;16.40;99.90;;;;;;5019833;28;20379;-84
2021/09/04 08:20:10;;;;;;;;;;;16.40;99.90;;;;;;5052544;28;19928;-85
2021/09/04 08:22:36;;;;;;;;;;;16.40;99.90;;;;;;5049353;28;19973;-85
2021/09/04 08:25:02;;;;;;;;;;;16.40;99.90;;;;;;5056122;28;20334;-85
2021/09/04 08:27:28;;;;;;;;;;;16.40;99.90;;;;;;5067659;28;20011;-84
2021/09/04 08:29:53;;;;;;;;;;;16.40;99.90;;;;;;5037727;28;20003;-85
2021/09/04 08:32:19;;;;;;;;;;;16.50;99.90;;;;;;5056459;28;20030;-85
2021/09/04 08:34:44;;;;;;;;;;;16.50;99.90;;;;;;5036757;28;19920;-85
2021/09/04 08:37:10;;;;;;;;;;;16.50;99.90;;;;;;5035719;28;19940;-86
2021/09/04 08:39:35;;;;;;;;;;;16.50;99.90;;;;;;5036817;28;19954;-85
2021/09/04 08:42:01;;;;;;;;;;;16.60;99.90;;;;;;5045002;28;19920;-85
2021/09/04 08:44:27;;;;;;;;;;;16.60;99.90;;;;;;5051614;28;19924;-85
2021/09/04 08:46:52;;;;;;;;;;;16.60;99.90;;;;;;5086644;28;20302;-85
2021/09/04 08:49:18;;;;;;;;;;;16.60;99.90;;;;;;5064115;28;19924;-85
2021/09/04 08:51:44;;;;;;;;;;;16.70;99.90;;;;;;5071105;28;19923;-85
2021/09/04 08:54:10;;;;;;;;;;;16.70;99.90;;;;;;5087482;28;19969;-85
2021/09/04 08:56:36;;;;;;;;;;;16.80;99.90;;;;;;5087333;28;20341;-84
2021/09/04 08:59:01;;;;;;;;;;;16.80;99.90;;;;;;5068669;28;19920;-84
2021/09/04 09:01:28;;;;;;;;;;;16.80;99.90;;;;;;5054212;28;19977;-85
2021/09/04 09:03:54;;;;;;;;;;;16.90;99.90;;;;;;5061770;28;19986;-84
2021/09/04 09:06:23;;;;;;;;;;;16.90;99.90;;;;;;5068978;28;19920;-84
2021/09/04 09:08:49;;;;;;;;;;;16.90;99.90;;;;;;5051570;28;19959;-85
2021/09/04 09:11:15;;;;;;;;;;;16.90;99.90;;;;;;5030904;28;20246;-84
2021/09/04 09:13:54;;;;;;;;;;;16.90;99.90;;;;;;5050882;28;19981;-84
2021/09/04 09:16:53;;;;;;;;;;;17.00;99.90;;;;;;5050755;28;20003;-84
2021/09/04 09:19:27;;;;;;;;;;;17.00;99.90;;;;;;5066144;28;19924;-86
2021/09/04 09:21:56;;;;;;;;;;;17.00;99.90;;;;;;5043150;28;19931;-85
2021/09/04 09:24:22;;;;;;;;;;;17.00;99.90;;;;;;5051329;28;20442;-85
2021/09/04 09:27:00;;;;;;;;;;;17.10;99.90;;;;;;5053238;28;20356;-85
2021/09/04 09:29:32;;;;;;;;;;;17.10;99.90;;;;;;5049568;28;20034;-86
2021/09/04 09:32:11;;;;;;;;;;;17.10;99.90;;;;;;5049907;28;20010;-86
2021/09/04 09:34:36;;;;;;;;;;;17.10;99.90;;;;;;5139952;22;19924;-88
2021/09/04 09:37:02;;;;;;;;;;;17.20;99.90;;;;;;5061604;28;19959;-89
2021/09/04 09:39:32;;;;;;;;;;;17.20;99.90;;;;;;5034617;28;19927;-89
2021/09/04 09:41:59;;;;;;;;;;;17.20;99.90;;;;;;5050638;28;19924;-89
2021/09/04 09:44:25;;;;;;;;;;;17.20;99.90;;;;;;5064499;28;19986;-90
2021/09/04 09:46:52;;;;;;;;;;;17.30;99.90;;;;;;5062505;28;19924;-88
2021/09/04 09:49:24;;;;;;;;;;;17.30;99.90;;;;;;5052037;28;19924;-92
2021/09/04 09:51:50;;;;;;;;;;;17.30;99.90;;;;;;5039746;28;19967;-89
2021/09/04 09:54:16;;;;;;;;;;;17.40;99.90;;;;;;5029935;28;19932;-87
2021/09/04 09:56:41;;;;;;;;;;;17.40;99.90;;;;;;5048958;28;19929;-86
2021/09/04 09:59:09;;;;;;;;;;;17.40;99.90;;;;;;5034191;28;20000;-90
2021/09/04 10:01:35;;;;;;;;;;;17.40;99.90;;;;;;5041435;28;19967;-88
2021/09/04 10:04:01;;;;;;;;;;;17.30;99.90;;;;;;5033877;28;19932;-86
2021/09/04 10:06:26;;;;;;;;;;;17.40;99.90;;;;;;5066741;28;19916;-87
2021/09/04 10:08:52;;;;;;;;;;;17.40;99.90;;;;;;5050416;28;19960;-86
2021/09/04 10:11:18;;;;;;;;;;;17.60;99.90;;;;;;5050358;28;20303;-87
2021/09/04 10:13:44;;;;;;;;;;;17.60;99.90;;;;;;5050112;28;19917;-87
2021/09/04 10:16:10;;;;;;;;;;;17.70;99.90;;;;;;5066206;28;19935;-87
2021/09/04 10:18:38;;;;;;;;;;;17.70;99.90;;;;;;5050319;28;19967;-87
2021/09/04 10:21:07;;;;;;;;;;;17.80;99.90;;;;;;5067143;28;20027;-87
2021/09/04 10:23:33;;;;;;;;;;;17.80;99.90;;;;;;5066509;28;19931;-88
2021/09/04 10:26:17;;;;;;;;;;;17.80;99.90;;;;;;5049018;28;19920;-88
2021/09/04 10:29:02;;;;;;;;;;;17.80;99.90;;;;;;5050091;28;19924;-88
2021/09/04 10:31:40;;;;;;;;;;;17.80;99.90;;;;;;5037092;28;20042;-88
2021/09/04 10:34:38;;;;;;;;;;;17.70;99.90;;;;;;5030842;28;20425;-88
2021/09/04 10:37:24;;;;;;;;;;;17.80;99.90;;;;;;5022778;28;19976;-87
2021/09/04 10:39:52;;;;;;;;;;;17.70;99.90;;;;;;5053104;28;19924;-87
2021/09/04 10:42:22;;;;;;;;;;;17.80;99.90;;;;;;5052859;28;20379;-88
2021/09/04 10:44:49;;;;;;;;;;;17.80;99.90;;;;;;5069480;28;20398;-88
2021/09/04 10:47:15;;;;;;;;;;;17.90;99.90;;;;;;5035533;28;19924;-87
2021/09/04 10:49:43;;;;;;;;;;;17.90;99.90;;;;;;5054388;28;20366;-87
2021/09/04 10:52:09;;;;;;;;;;;17.90;99.90;;;;;;5042986;28;19928;-88
2021/09/04 10:54:53;;;;;;;;;;;18.00;99.90;;;;;;5024143;28;19920;-88
2021/09/04 10:57:19;;;;;;;;;;;18.00;99.90;;;;;;5052086;28;19977;-87
2021/09/04 11:00:00;;;;;;;;;;;18.10;99.90;;;;;;5035245;28;19924;-88
2021/09/04 11:02:38;;;;;;;;;;;18.20;99.90;;;;;;5050647;28;19920;-87
2021/09/04 11:05:23;;;;;;;;;;;18.30;99.90;;;;;;5036823;28;20033;-88
2021/09/04 11:07:48;;;;;;;;;;;18.30;99.90;;;;;;5067218;28;19925;-87
2021/09/04 11:10:24;;;;;;;;;;;18.30;99.90;;;;;;5052658;28;20292;-88
2021/09/04 11:13:08;;;;;;;;;;;18.30;99.90;;;;;;5052886;28;19923;-88
2021/09/04 11:15:34;;;;;;;;;;;18.30;99.90;;;;;;5069047;28;20298;-88
2021/09/04 11:17:59;;;;;;;;;;;18.40;99.90;;;;;;5040338;28;19925;-88
2021/09/04 11:20:25;;;;;;;;;;;18.40;99.90;;;;;;5043501;28;19924;-88
2021/09/04 11:22:51;;;;;;;;;;;18.40;99.90;;;;;;5065232;28;19924;-88
2021/09/04 11:25:19;;;;;;;;;;;18.50;99.90;;;;;;5057950;28;20231;-88
2021/09/04 11:27:45;;;;;;;;;;;18.50;99.90;;;;;;5055640;28;19920;-88
2021/09/04 11:30:14;;;;;;;;;;;18.60;99.90;;;;;;5054676;28;19924;-88
2021/09/04 11:32:39;;;;;;;;;;;18.60;99.90;;;;;;5055854;28;19962;-91
2021/09/04 11:35:05;;;;;;;;;;;18.60;99.90;;;;;;5042096;28;20383;-89
2021/09/04 11:37:32;;;;;;;;;;;18.50;99.90;;;;;;5035112;28;19924;-91
2021/09/04 11:40:03;;;;;;;;;;;18.50;99.90;;;;;;5050887;28;19925;-91
2021/09/04 11:42:30;;;;;;;;;;;18.50;99.90;;;;;;5037033;28;19925;-90
2021/09/04 11:44:57;;;;;;;;;;;18.50;99.90;;;;;;5055815;28;20309;-91
2021/09/04 11:47:24;;;;;;;;;;;18.60;99.90;;;;;;5046633;28;19920;-92
2021/09/04 11:49:49;;;;;;;;;;;18.70;99.90;;;;;;5045225;28;19920;-91
2021/09/04 11:52:19;;;;;;;;;;;18.70;99.90;;;;;;5054111;28;19932;-90
2021/09/04 11:54:45;;;;;;;;;;;18.80;99.90;;;;;;5036763;28;19935;-91
2021/09/04 11:57:23;;;;;;;;;;;18.80;99.90;;;;;;5028304;28;20552;-90
2021/09/04 11:59:56;;;;;;;;;;;18.80;99.90;;;;;;5051652;28;19916;-91
2021/09/04 12:02:21;;;;;;;;;;;18.90;99.90;;;;;;5020562;28;19928;-90
2021/09/04 12:04:47;;;;;;;;;;;18.90;99.90;;;;;;5037065;28;19944;-91
2021/09/04 12:07:13;;;;;;;;;;;18.90;99.90;;;;;;5056304;28;19924;-91
2021/09/04 12:09:39;;;;;;;;;;;18.80;99.90;;;;;;5055829;28;19920;-91
2021/09/04 12:12:05;;;;;;;;;;;18.80;99.90;;;;;;5055819;28;19973;-91
2021/09/04 12:14:31;;;;;;;;;;;18.80;99.90;;;;;;5040124;28;20473;-91
2021/09/04 12:16:57;;;;;;;;;;;18.80;99.90;;;;;;5073594;28;19966;-91
2021/09/04 12:19:22;;;;;;;;;;;18.80;99.90;;;;;;5056600;28;19968;-91
2021/09/04 12:21:49;;;;;;;;;;;18.80;99.90;;;;;;5037158;28;19916;-91
2021/09/04 12:24:14;;;;;;;;;;;18.80;99.90;;;;;;5040318;28;20410;-91
2021/09/04 12:26:52;;;;;;;;;;;18.80;99.90;;;;;;5055972;28;19959;-91
2021/09/04 12:29:18;;;;;;;;;;;18.80;99.90;;;;;;5048692;28;20646;-91
2021/09/04 12:31:45;;;;;;;;;;;18.80;99.90;;;;;;5020879;28;19981;-91
2021/09/04 12:34:21;;;;;;;;;;;18.80;99.90;;;;;;5036444;28;20395;-92
2021/09/04 12:36:46;;;;;;;;;;;18.80;99.90;;;;;;5052886;28;20019;-91
2021/09/04 12:39:22;;;;;;;;;;;18.80;99.90;;;;;;5057085;28;20011;-91
2021/09/04 12:42:05;;;;;;;;;;;18.80;99.90;;;;;;5036854;28;19936;-90
2021/09/04 12:44:38;;;;;;;;;;;18.80;99.90;;;;;;5038431;28;19924;-91
2021/09/04 12:47:05;;;;;;;;;;;18.90;99.90;;;;;;5056319;28;19931;-91
2021/09/04 12:49:32;;;;;;;;;;;18.90;99.90;;;;;;5046688;28;19925;-91
2021/09/04 12:52:05;;;;;;;;;;;18.90;99.90;;;;;;5036184;28;19969;-92
2021/09/04 12:54:32;;;;;;;;;;;18.90;99.90;;;;;;5071312;28;20383;-91
2021/09/04 12:57:08;;;;;;;;;;;18.90;99.90;;;;;;5068848;28;19934;-91
2021/09/04 13:00:00;;;;;;;;;;;18.90;99.90;;;;;;5065559;28;19925;-90
2021/09/04 13:02:31;;;;;;;;;;;18.90;99.90;;;;;;5067241;28;19924;-91
2021/09/04 13:05:02;;;;;;;;;;;19.00;99.90;;;;;;5036348;28;19917;-91
2021/09/04 13:07:27;;;;;;;;;;;19.00;99.90;;;;;;5035872;28;19920;-90
2021/09/04 13:09:53;;;;;;;;;;;19.00;99.90;;;;;;5031547;28;19921;-91
2021/09/04 13:12:19;;;;;;;;;;;19.00;99.90;;;;;;5039102;28;19920;-91
2021/09/04 13:14:45;;;;;;;;;;;19.00;99.90;;;;;;5068073;28;20032;-91
2021/09/04 13:17:11;;;;;;;;;;;19.00;99.90;;;;;;5043416;28;19928;-91
2021/09/04 13:19:37;;;;;;;;;;;19.00;99.90;;;;;;5070629;28;19983;-92
2021/09/04 13:22:02;;;;;;;;;;;19.00;99.90;;;;;;5033149;28;20007;-89
2021/09/04 13:24:28;;;;;;;;;;;19.10;99.90;;;;;;5017269;28;20296;-88
2021/09/04 13:26:54;;;;;;;;;;;19.10;99.90;;;;;;5051666;28;19930;-90
2021/09/04 13:29:22;;;;;;;;;;;19.10;99.90;;;;;;5071961;28;19926;-90
2021/09/04 13:31:49;;;;;;;;;;;19.10;99.90;;;;;;5021212;28;19964;-91
2021/09/04 13:34:15;;;;;;;;;;;19.00;99.90;;;;;;5034849;28;19921;-91
2021/09/04 13:36:40;;;;;;;;;;;19.00;99.90;;;;;;5052272;28;19921;-91
2021/09/04 13:39:06;;;;;;;;;;;19.00;99.90;;;;;;5039322;28;20337;-91
2021/09/04 13:41:32;;;;;;;;;;;19.10;99.90;;;;;;5054894;28;20387;-93
2021/09/04 13:43:57;;;;;;;;;;;19.10;99.90;;;;;;5041534;28;20285;-93
2021/09/04 13:46:23;;;;;;;;;;;19.10;99.90;;;;;;5052281;28;20381;-92
2021/09/04 13:48:49;;;;;;;;;;;19.00;99.90;;;;;;5038548;28;19931;-92
2021/09/04 13:51:14;;;;;;;;;;;19.00;99.90;;;;;;5051933;28;19920;-93
2021/09/04 13:53:40;;;;;;;;;;;19.00;99.90;;;;;;5037573;28;19963;-93
2021/09/04 13:56:05;;;;;;;;;;;19.00;99.90;;;;;;5034322;28;20415;-94
2021/09/04 13:58:31;;;;;;;;;;;19.10;99.90;;;;;;5025643;28;20056;-94
2021/09/04 14:00:57;;;;;;;;;;;19.10;99.90;;;;;;5069128;28;19958;-93
2021/09/04 14:03:22;;;;;;;;;;;19.10;99.90;;;;;;5053028;28;19977;-94
2021/09/04 14:05:48;;;;;;;;;;;19.00;99.90;;;;;;5032587;28;20020;-94
2021/09/04 14:08:13;;;;;;;;;;;19.10;99.90;;;;;;5051818;28;19921;-94
2021/09/04 14:10:39;;;;;;;;;;;19.10;99.90;;;;;;5028422;28;19929;-94
2021/09/04 14:13:04;;;;;;;;;;;19.10;99.90;;;;;;5047542;28;22149;-93
2021/09/04 14:15:30;;;;;;;;;;;19.10;99.90;;;;;;5061854;28;19928;-93